Time;durP1;ratioP1;P1;durP2;ratioP2;P2;SDS_P1;SDS_P2;PMS_P1;PMS_P2;Temp;Humidity;BMP_temperature;BMP_pressure;BME280_temperature;BME280_humidity;BME280_pressure;Samples;Min_cycle;Max_cycle;Signal;HPM_P1;HPM_P2
2023/06/15 00:01:27;;;;;;;2.35;1.52;;;;;;;16.60;66.94;98564.13;4136425;28;20260;-49
2023/06/15 00:03:29;;;;;;;3.40;1.75;;;;;;;16.54;67.01;98560.56;4144690;28;20260;-50
2023/06/15 00:05:31;;;;;;;1.90;1.80;;;;;;;16.49;67.09;98557.84;4144605;28;20714;-52
2023/06/15 00:07:33;;;;;;;2.97;1.58;;;;;;;16.47;67.11;98557.31;4136576;28;20604;-51
2023/06/15 00:09:34;;;;;;;5.15;2.20;;;;;;;16.40;67.32;98561.50;4144150;28;20213;-50
2023/06/15 00:11:36;;;;;;;1.90;1.80;;;;;;;16.43;68.03;98556.22;4143616;28;20229;-48
2023/06/15 00:13:38;;;;;;;2.30;2.10;;;;;;;16.32;68.31;98560.16;4152181;28;20312;-51
2023/06/15 00:15:39;;;;;;;2.03;1.92;;;;;;;16.35;68.36;98556.81;4166904;28;20208;-52
2023/06/15 00:17:43;;;;;;;2.30;1.90;;;;;;;16.29;68.31;98557.94;4139690;28;20197;-49
2023/06/15 00:19:45;;;;;;;1.88;1.67;;;;;;;16.37;68.22;98560.09;4134612;28;20205;-51
2023/06/15 00:21:48;;;;;;;2.58;2.38;;;;;;;16.31;68.10;98561.28;4139030;28;20252;-49
2023/06/15 00:23:50;;;;;;;2.03;1.92;;;;;;;16.28;67.68;98563.75;4139162;28;20221;-51
2023/06/15 00:25:53;;;;;;;2.40;2.15;;;;;;;16.23;67.99;98558.28;4138390;28;20444;-49
2023/06/15 00:27:55;;;;;;;2.40;2.20;;;;;;;16.19;68.20;98569.06;4127886;28;20222;-49
2023/06/15 00:29:56;;;;;;;2.38;2.22;;;;;;;16.12;68.67;98568.56;4167092;28;20213;-49
2023/06/15 00:31:58;;;;;;;4.43;1.55;;;;;;;16.02;68.43;98573.31;4160655;28;20607;-51
2023/06/15 00:34:00;;;;;;;2.78;2.22;;;;;;;16.01;68.57;98572.47;4154374;28;20244;-49
2023/06/15 00:36:05;;;;;;;2.45;2.25;;;;;;;16.02;68.64;98568.59;4136138;28;20293;-49
2023/06/15 00:38:07;;;;;;;5.03;2.13;;;;;;;16.01;68.83;98571.63;4140231;28;20292;-49
2023/06/15 00:40:10;;;;;;;2.17;1.98;;;;;;;16.00;68.99;98570.81;4144802;28;20675;-50
2023/06/15 00:42:11;;;;;;;2.13;1.92;;;;;;;16.02;69.20;98579.63;4139181;28;20297;-49
2023/06/15 00:44:13;;;;;;;2.03;1.92;;;;;;;15.94;69.68;98574.72;4143756;28;20237;-50
2023/06/15 00:46:15;;;;;;;3.38;2.47;;;;;;;15.91;69.64;98572.50;4143337;28;20220;-50
2023/06/15 00:48:17;;;;;;;2.08;1.88;;;;;;;15.93;69.99;98574.97;4165711;28;20223;-50
2023/06/15 00:50:19;;;;;;;2.10;2.00;;;;;;;15.89;70.19;98580.25;4143283;28;20209;-49
2023/06/15 00:52:21;;;;;;;1.83;1.73;;;;;;;15.84;70.50;98577.50;4143354;28;20282;-49
2023/06/15 00:54:24;;;;;;;2.50;2.35;;;;;;;15.85;70.77;98578.34;4142685;28;20250;-49
2023/06/15 00:56:29;;;;;;;4.15;2.05;;;;;;;15.77;70.69;98574.22;4150401;28;20205;-50
2023/06/15 00:58:31;;;;;;;2.17;1.98;;;;;;;15.74;70.80;98583.06;4152506;28;20307;-49
2023/06/15 01:00:36;;;;;;;2.30;2.10;;;;;;;15.77;70.86;98582.50;4141285;28;20936;-51
2023/06/15 01:02:39;;;;;;;2.10;2.00;;;;;;;15.64;70.68;98583.09;4144466;28;20201;-52
2023/06/15 01:04:41;;;;;;;2.65;2.38;;;;;;;15.67;71.07;98571.50;4153731;28;20331;-49
2023/06/15 01:06:51;;;;;;;3.75;2.33;;;;;;;15.56;71.25;98575.41;4141204;28;20200;-49
2023/06/15 01:08:53;;;;;;;2.17;2.08;;;;;;;15.59;71.22;98585.88;4150547;28;20205;-49
2023/06/15 01:10:57;;;;;;;6.00;2.10;;;;;;;15.49;71.43;98580.38;4134371;28;20262;-49
2023/06/15 01:13:00;;;;;;;3.15;2.30;;;;;;;15.47;71.18;98592.78;4160443;28;21401;-49
2023/06/15 01:15:02;;;;;;;2.05;1.95;;;;;;;15.46;71.34;98580.13;4136001;28;20303;-48
2023/06/15 01:17:08;;;;;;;2.58;2.35;;;;;;;15.55;71.37;98584.78;4167849;28;20358;-49
2023/06/15 01:19:29;;;;;;;2.70;2.50;;;;;;;15.42;71.41;98571.56;4167492;28;20333;-49
2023/06/15 01:21:31;;;;;;;2.13;2.03;;;;;;;15.45;71.37;98578.47;4149972;28;20211;-49
2023/06/15 01:23:43;;;;;;;2.22;1.95;;;;;;;15.37;71.41;98577.09;4152933;28;20727;-50
2023/06/15 01:25:53;;;;;;;2.05;1.95;;;;;;;15.36;71.50;98575.44;4137067;28;20205;-51
2023/06/15 01:28:00;;;;;;;2.65;2.45;;;;;;;15.31;71.83;98571.84;4147274;28;20299;-50
2023/06/15 01:30:04;;;;;;;3.15;2.85;;;;;;;15.33;72.26;98570.50;4132796;28;20255;-49
2023/06/15 01:32:06;;;;;;;2.25;2.13;;;;;;;15.32;71.91;98568.84;4167046;28;20242;-49
2023/06/15 01:34:08;;;;;;;2.63;2.42;;;;;;;15.28;71.95;98567.72;4138872;28;20241;-51
2023/06/15 01:36:10;;;;;;;2.17;2.08;;;;;;;15.27;72.55;98571.59;4152786;28;20212;-49
2023/06/15 01:38:13;;;;;;;2.70;2.50;;;;;;;15.24;72.70;98571.31;4166811;28;20211;-50
2023/06/15 01:40:15;;;;;;;2.80;2.60;;;;;;;15.22;72.69;98570.78;4153936;28;20618;-49
2023/06/15 01:42:19;;;;;;;3.35;2.70;;;;;;;15.15;72.78;98568.28;4138810;28;20271;-49
2023/06/15 01:44:21;;;;;;;2.88;2.53;;;;;;;15.14;72.78;98571.31;4152477;28;20232;-49
2023/06/15 01:46:24;;;;;;;2.63;2.42;;;;;;;15.08;73.38;98566.91;4152406;28;20208;-50
2023/06/15 01:48:26;;;;;;;2.80;2.50;;;;;;;15.07;73.47;98565.25;4141734;28;20305;-51
2023/06/15 01:50:29;;;;;;;2.30;2.20;;;;;;;15.09;73.24;98569.41;4166366;28;20212;-49
2023/06/15 01:52:31;;;;;;;2.33;2.22;;;;;;;15.04;73.36;98566.66;4142867;28;20271;-50
2023/06/15 01:54:33;;;;;;;2.63;2.42;;;;;;;15.03;73.21;98564.19;4166196;28;20290;-51
2023/06/15 01:56:35;;;;;;;2.08;1.98;;;;;;;15.01;73.21;98571.88;4151642;28;20217;-51
2023/06/15 01:58:37;;;;;;;2.80;2.47;;;;;;;14.96;73.83;98569.97;4151736;28;20254;-50
2023/06/15 02:00:38;;;;;;;6.57;3.10;;;;;;;14.92;74.00;98568.88;4140897;28;20213;-50
2023/06/15 02:02:40;;;;;;;2.22;2.03;;;;;;;14.94;73.58;98574.09;4168075;28;20306;-49
2023/06/15 02:04:42;;;;;;;2.58;2.38;;;;;;;14.91;73.75;98572.72;4135925;28;20325;-49
2023/06/15 02:06:43;;;;;;;2.83;2.63;;;;;;;14.91;74.07;98567.22;4134822;28;20264;-51
2023/06/15 02:08:45;;;;;;;2.63;2.42;;;;;;;14.88;74.01;98572.44;4127886;28;20214;-51
2023/06/15 02:10:47;;;;;;;2.83;2.63;;;;;;;14.88;74.13;98573.28;4134725;28;20218;-52
2023/06/15 02:12:49;;;;;;;2.15;2.05;;;;;;;14.88;74.33;98572.44;4138369;28;20213;-49
2023/06/15 02:14:50;;;;;;;2.53;2.33;;;;;;;14.77;74.49;98574.38;4145152;28;20226;-49
2023/06/15 02:16:52;;;;;;;2.65;2.47;;;;;;;14.74;74.78;98577.69;4139294;28;20691;-50
2023/06/15 02:18:54;;;;;;;2.92;2.72;;;;;;;14.77;75.28;98584.59;4170918;28;20666;-50
2023/06/15 02:20:56;;;;;;;2.10;2.00;;;;;;;14.76;74.97;98581.00;4139694;28;20213;-50
2023/06/15 02:22:59;;;;;;;2.60;2.28;;;;;;;14.74;75.04;98572.19;4172589;28;20265;-51
2023/06/15 02:25:00;;;;;;;3.05;2.67;;;;;;;14.70;75.10;98573.81;4171503;28;20263;-50
2023/06/15 02:27:02;;;;;;;1.98;1.88;;;;;;;14.70;75.31;98584.03;4140658;28;20213;-50
2023/06/15 02:29:04;;;;;;;2.50;2.30;;;;;;;14.64;75.43;98577.69;4169521;28;20261;-52
2023/06/15 02:31:06;;;;;;;3.95;3.05;;;;;;;14.60;75.46;98575.75;4171169;28;20737;-50
2023/06/15 02:33:08;;;;;;;2.78;2.58;;;;;;;14.63;75.46;98580.72;4146625;28;20220;-50
2023/06/15 02:35:11;;;;;;;2.20;2.10;;;;;;;14.64;75.76;98574.91;4137197;28;20225;-49
2023/06/15 02:37:13;;;;;;;3.83;2.30;;;;;;;14.60;76.03;98576.59;4145904;28;20205;-51
2023/06/15 02:39:15;;;;;;;3.25;2.95;;;;;;;14.55;76.06;98581.25;4138781;28;20248;-50
2023/06/15 02:41:16;;;;;;;3.40;3.10;;;;;;;14.57;76.36;98581.81;4140467;28;20260;-52
2023/06/15 02:43:18;;;;;;;3.90;3.65;;;;;;;14.48;76.56;98584.28;4145676;28;20209;-51
2023/06/15 02:45:20;;;;;;;3.58;3.28;;;;;;;14.48;76.45;98584.28;4137441;28;20764;-50
2023/06/15 02:47:22;;;;;;;3.45;3.25;;;;;;;14.44;76.86;98588.66;4135554;28;20212;-50
2023/06/15 02:49:24;;;;;;;3.53;3.22;;;;;;;14.40;77.26;98587.59;4136887;28;20754;-50
2023/06/15 02:51:26;;;;;;;2.80;2.60;;;;;;;14.35;77.03;98593.06;4135129;28;20217;-50
2023/06/15 02:53:28;;;;;;;3.03;2.83;;;;;;;14.37;77.24;98590.84;4138902;28;20206;-50
2023/06/15 02:55:30;;;;;;;2.70;2.50;;;;;;;14.40;77.31;98593.09;4128826;28;20727;-50
2023/06/15 02:57:31;;;;;;;2.17;2.05;;;;;;;14.25;77.81;98584.81;4141298;28;20202;-52
2023/06/15 02:59:33;;;;;;;3.03;2.83;;;;;;;14.22;77.72;98590.84;4145546;28;20209;-50
2023/06/15 03:01:38;;;;;;;2.95;2.72;;;;;;;14.24;77.80;98594.13;4153987;28;20209;-50
2023/06/15 03:03:40;;;;;;;2.97;2.78;;;;;;;14.21;77.84;98591.94;4136596;28;20628;-50
2023/06/15 03:05:43;;;;;;;4.72;2.15;;;;;;;14.22;77.95;98596.34;4140489;28;20206;-50
2023/06/15 03:07:46;;;;;;;3.05;2.80;;;;;;;14.20;78.14;98598.53;4152570;28;20227;-50
2023/06/15 03:09:48;;;;;;;2.45;2.25;;;;;;;14.12;78.34;98596.28;4146494;28;20271;-50
2023/06/15 03:11:50;;;;;;;3.50;2.50;;;;;;;14.09;78.75;98594.06;4145394;28;20209;-50
2023/06/15 03:13:53;;;;;;;2.63;2.42;;;;;;;14.13;78.58;98597.94;4146489;28;20216;-50
2023/06/15 03:15:55;;;;;;;2.78;2.58;;;;;;;14.14;78.45;98594.09;4143263;28;20209;-50
2023/06/15 03:17:57;;;;;;;3.08;2.88;;;;;;;14.19;78.80;98596.06;4170156;28;20242;-50
2023/06/15 03:20:00;;;;;;;3.28;3.08;;;;;;;14.19;78.29;98596.06;4161670;28;20213;-50
2023/06/15 03:22:02;;;;;;;7.05;2.80;;;;;;;14.02;79.11;98601.75;4170370;28;20252;-50
2023/06/15 03:24:05;;;;;;;3.10;2.90;;;;;;;14.05;78.56;98601.22;4143933;28;20328;-50
2023/06/15 03:26:07;;;;;;;5.72;2.63;;;;;;;14.07;78.78;98595.44;4169591;28;20212;-52
2023/06/15 03:28:09;;;;;;;3.22;2.85;;;;;;;14.13;78.43;98599.84;4145171;28;20206;-51
2023/06/15 03:30:11;;;;;;;3.88;3.58;;;;;;;14.12;78.49;98601.81;4152051;28;20197;-50
2023/06/15 03:32:13;;;;;;;2.92;2.72;;;;;;;14.15;78.50;98606.75;4137975;28;20595;-50
2023/06/15 03:34:15;;;;;;;4.82;3.03;;;;;;;14.16;78.38;98605.66;4153187;28;20237;-51
2023/06/15 03:36:18;;;;;;;2.90;2.60;;;;;;;14.12;78.81;98607.31;4140910;28;20217;-52
2023/06/15 03:38:20;;;;;;;3.53;3.22;;;;;;;14.06;78.98;98605.63;4144126;28;20244;-50
2023/06/15 03:40:22;;;;;;;2.88;2.67;;;;;;;14.00;78.96;98603.13;4168147;28;20716;-51
2023/06/15 03:42:23;;;;;;;4.13;3.33;;;;;;;13.94;79.20;98605.03;4142217;28;21069;-52
2023/06/15 03:44:25;;;;;;;2.88;2.67;;;;;;;13.90;79.30;98606.66;4153746;28;20236;-50
2023/06/15 03:46:27;;;;;;;2.90;2.63;;;;;;;13.87;79.33;98615.47;4122090;28;20207;-50
2023/06/15 03:48:29;;;;;;;4.55;2.58;;;;;;;13.89;79.26;98617.94;4146732;28;20220;-50
2023/06/15 03:50:31;;;;;;;3.38;3.17;;;;;;;13.90;79.44;98620.41;4122098;28;20218;-50
2023/06/15 03:52:33;;;;;;;9.80;3.28;;;;;;;13.95;79.25;98623.19;4169329;28;20236;-52
2023/06/15 03:54:36;;;;;;;3.13;2.83;;;;;;;13.99;79.33;98626.22;4133892;28;20687;-50
2023/06/15 03:56:38;;;;;;;2.53;2.33;;;;;;;14.01;79.23;98627.63;4137507;28;20244;-50
2023/06/15 03:58:40;;;;;;;3.03;2.83;;;;;;;13.96;79.36;98630.34;4168666;28;20205;-51
2023/06/15 04:00:43;;;;;;;4.45;2.63;;;;;;;13.96;79.61;98630.34;4146505;28;20213;-51
2023/06/15 04:02:45;;;;;;;3.08;2.88;;;;;;;13.91;79.63;98630.31;4145364;28;20652;-52
2023/06/15 04:04:47;;;;;;;3.58;2.63;;;;;;;13.87;79.78;98629.22;4135564;28;20576;-50
2023/06/15 04:06:52;;;;;;;3.08;2.75;;;;;;;13.82;80.58;98634.69;4138135;28;20217;-51
2023/06/15 04:08:54;;;;;;;2.95;2.70;;;;;;;13.77;80.82;98637.41;4140949;28;20227;-49
2023/06/15 04:10:57;;;;;;;4.30;2.67;;;;;;;13.76;80.66;98646.75;4168610;28;20246;-49
2023/06/15 04:12:58;;;;;;;3.00;2.80;;;;;;;13.79;80.53;98637.97;4139876;28;20664;-50
2023/06/15 04:15:00;;;;;;;2.88;2.67;;;;;;;13.85;80.60;98634.16;4135743;28;20316;-49
2023/06/15 04:17:03;;;;;;;3.53;3.22;;;;;;;13.90;80.87;98636.91;4137247;28;20293;-50
2023/06/15 04:19:07;;;;;;;3.15;2.95;;;;;;;13.94;81.31;98638.03;4145355;28;20602;-50
2023/06/15 04:21:08;;;;;;;3.15;2.95;;;;;;;13.87;81.39;98637.47;4170410;28;20295;-50
2023/06/15 04:23:10;;;;;;;5.47;2.90;;;;;;;13.88;81.33;98644.63;4151802;28;20564;-49
2023/06/15 04:25:12;;;;;;;3.22;3.03;;;;;;;13.89;81.16;98635.25;4142450;28;20236;-51
2023/06/15 04:27:18;;;;;;;4.53;2.15;;;;;;;13.93;81.33;98639.16;4135785;28;20245;-51
2023/06/15 04:29:22;;;;;;;3.38;3.08;;;;;;;14.08;81.55;98643.84;4134908;28;20648;-49
2023/06/15 04:31:24;;;;;;;4.78;2.85;;;;;;;13.86;82.74;98634.97;4135820;28;20238;-51
2023/06/15 04:33:26;;;;;;;3.42;3.10;;;;;;;13.95;82.43;98636.94;4138256;28;20218;-52
2023/06/15 04:35:31;;;;;;;2.95;2.60;;;;;;;14.00;81.98;98636.97;4138142;28;20361;-50
2023/06/15 04:37:32;;;;;;;5.05;2.47;;;;;;;14.06;81.76;98649.66;4137585;28;20206;-50
2023/06/15 04:39:34;;;;;;;3.05;2.60;;;;;;;14.05;81.78;98647.16;4170963;28;20783;-49
2023/06/15 04:41:36;;;;;;;3.95;2.75;;;;;;;14.05;82.00;98650.75;4154207;28;20633;-49
2023/06/15 04:43:37;;;;;;;3.08;2.88;;;;;;;14.06;81.57;98651.56;4133110;28;20210;-50
2023/06/15 04:45:39;;;;;;;2.72;2.53;;;;;;;14.09;81.51;98651.84;4150675;28;20229;-50
2023/06/15 04:47:42;;;;;;;10.65;3.17;;;;;;;14.14;81.65;98656.53;4143004;28;20212;-49
2023/06/15 04:49:44;;;;;;;6.20;2.95;;;;;;;14.18;81.68;98654.94;4144892;28;20204;-49
2023/06/15 04:51:47;;;;;;;7.03;2.35;;;;;;;14.24;81.31;98654.69;4167565;28;20267;-49
2023/06/15 04:53:49;;;;;;;8.10;3.88;;;;;;;14.25;82.11;98661.03;4141484;28;20217;-50
2023/06/15 04:55:51;;;;;;;6.85;3.70;;;;;;;14.32;81.96;98661.63;4140333;28;20322;-50
2023/06/15 04:57:53;;;;;;;13.85;3.35;;;;;;;14.33;81.69;98664.09;4151104;28;20251;-52
2023/06/15 04:59:55;;;;;;;6.05;3.50;;;;;;;14.36;81.65;98663.53;4143039;28;20620;-49
2023/06/15 05:01:57;;;;;;;3.60;3.30;;;;;;;14.41;81.37;98666.31;4130012;28;20584;-50
2023/06/15 05:04:00;;;;;;;6.63;2.78;;;;;;;14.52;81.21;98669.94;4137053;28;20730;-50
2023/06/15 05:06:02;;;;;;;13.95;3.03;;;;;;;14.59;80.95;98668.59;4133500;28;20272;-50
2023/06/15 05:08:04;;;;;;;3.28;3.08;;;;;;;14.67;80.72;98670.81;4143482;28;20209;-50
2023/06/15 05:10:07;;;;;;;4.32;3.00;;;;;;;14.72;80.33;98668.06;4154342;28;20270;-52
2023/06/15 05:12:09;;;;;;;10.25;2.78;;;;;;;14.77;80.20;98672.75;4166555;28;20491;-49
2023/06/15 05:14:11;;;;;;;5.95;2.70;;;;;;;14.84;79.90;98676.06;4152141;28;20287;-49
2023/06/15 05:16:12;;;;;;;2.80;2.60;;;;;;;14.71;81.49;98671.88;4139070;28;20293;-49
2023/06/15 05:18:14;;;;;;;4.03;2.45;;;;;;;14.71;81.76;98677.41;4144094;28;20668;-52
2023/06/15 05:20:16;;;;;;;4.35;1.98;;;;;;;14.91;79.73;98674.69;4136656;28;20213;-49
2023/06/15 05:22:17;;;;;;;2.70;2.47;;;;;;;15.06;80.55;98671.97;4168482;28;20273;-49
2023/06/15 05:24:19;;;;;;;1.98;1.80;;;;;;;15.23;78.83;98678.00;4144454;28;20229;-49
2023/06/15 05:26:21;;;;;;;3.10;2.28;;;;;;;15.03;81.11;98680.75;4151043;28;20201;-49
2023/06/15 05:28:31;;;;;;;3.03;2.00;;;;;;;15.11;80.77;98687.66;4137374;28;21081;-51
2023/06/15 05:30:32;;;;;;;2.25;2.13;;;;;;;15.34;78.74;98682.47;4138689;28;20218;-49
2023/06/15 05:32:37;;;;;;;3.33;2.55;;;;;;;15.53;78.04;98680.78;4135764;28;20206;-50
2023/06/15 05:34:39;;;;;;;2.40;2.22;;;;;;;15.71;77.59;98685.72;4167230;28;20224;-50
2023/06/15 05:36:41;;;;;;;2.20;2.10;;;;;;;15.90;78.87;98686.78;4139267;28;20210;-51
2023/06/15 05:38:58;;;;;;;2.63;2.42;;;;;;;15.89;79.10;98689.84;4165475;28;20250;-50
2023/06/15 05:40:59;;;;;;;3.30;2.60;;;;;;;16.18;78.77;98688.06;4141404;28;20229;-50
2023/06/15 05:43:01;;;;;;;3.88;2.50;;;;;;;16.39;77.67;98690.53;4133375;28;20279;-50
2023/06/15 05:45:03;;;;;;;2.13;2.00;;;;;;;16.63;77.03;98685.16;4136444;28;20255;-49
2023/06/15 05:47:05;;;;;;;8.18;2.28;;;;;;;16.84;75.34;98690.25;4139057;28;20710;-49
2023/06/15 05:49:07;;;;;;;9.65;2.03;;;;;;;17.11;74.54;98685.13;4140642;28;20221;-50
2023/06/15 05:51:09;;;;;;;2.83;2.28;;;;;;;17.28;74.46;98699.34;4145637;28;20546;-50
2023/06/15 05:53:11;;;;;;;2.88;2.10;;;;;;;17.47;73.15;98703.09;4168815;28;20338;-50
2023/06/15 05:55:12;;;;;;;2.28;1.90;;;;;;;17.51;73.41;98701.41;4153256;28;20224;-50
2023/06/15 05:57:15;;;;;;;2.17;1.98;;;;;;;17.80;71.86;98703.03;4147789;28;20217;-50
2023/06/15 05:59:16;;;;;;;13.38;1.92;;;;;;;17.98;71.31;98704.28;4155542;28;20201;-50
2023/06/15 06:01:34;;;;;;;2.10;1.85;;;;;;;18.00;70.94;98702.03;4130949;28;21038;-51
2023/06/15 06:03:35;;;;;;;11.15;2.25;;;;;;;18.22;70.35;98705.94;4139965;28;20210;-49
2023/06/15 06:05:37;;;;;;;3.58;2.15;;;;;;;18.43;69.28;98706.53;4169572;28;20274;-49
2023/06/15 06:07:39;;;;;;;1.90;1.80;;;;;;;18.54;69.28;98706.13;4145929;28;20209;-50
2023/06/15 06:09:41;;;;;;;1.92;1.83;;;;;;;18.62;69.12;98704.63;4123690;28;20210;-50
2023/06/15 06:11:43;;;;;;;3.72;1.85;;;;;;;18.60;69.82;98701.34;4168160;28;20791;-52
2023/06/15 06:13:44;;;;;;;1.55;1.45;;;;;;;18.88;68.84;98703.16;4146893;28;20205;-49
2023/06/15 06:15:46;;;;;;;4.15;1.85;;;;;;;18.93;68.32;98708.66;4131443;28;20199;-50
2023/06/15 06:17:48;;;;;;;3.97;1.90;;;;;;;19.06;68.47;98705.13;4168891;28;20622;-49
2023/06/15 06:20:09;;;;;;;2.95;2.03;;;;;;;19.22;67.41;98703.78;4154195;28;20201;-50
2023/06/15 06:22:11;;;;;;;2.30;2.05;;;;;;;19.45;66.52;98705.66;4169064;28;20629;-49
2023/06/15 06:24:12;;;;;;;6.03;1.98;;;;;;;19.36;66.09;98705.50;4153013;28;20224;-50
2023/06/15 06:26:14;;;;;;;1.90;1.80;;;;;;;19.63;66.00;98707.56;4139402;28;20258;-49
2023/06/15 06:28:19;;;;;;;3.42;2.10;;;;;;;19.47;66.19;98706.16;4137714;28;20205;-51
2023/06/15 06:30:21;;;;;;;4.70;2.50;;;;;;;19.03;65.91;98701.00;4137049;28;20209;-49
2023/06/15 06:32:23;;;;;;;2.38;2.17;;;;;;;19.55;65.90;98702.69;4137873;28;20248;-49
2023/06/15 06:34:25;;;;;;;1.70;1.60;;;;;;;19.73;66.08;98699.91;4128866;28;20275;-49
2023/06/15 06:36:27;;;;;;;2.42;1.77;;;;;;;20.01;65.63;98695.19;4140352;28;20213;-50
2023/06/15 06:38:28;;;;;;;1.88;1.70;;;;;;;20.09;65.71;98703.69;4152249;28;20679;-51
2023/06/15 06:40:30;;;;;;;4.63;2.47;;;;;;;20.24;65.11;98699.81;4152793;28;20204;-50
2023/06/15 06:42:32;;;;;;;3.60;1.85;;;;;;;20.30;64.72;98707.72;4151916;28;20209;-52
2023/06/15 06:44:34;;;;;;;2.38;2.17;;;;;;;20.23;63.11;98703.69;4140677;28;20283;-51
2023/06/15 06:46:36;;;;;;;2.90;2.28;;;;;;;20.08;62.46;98704.00;4143194;28;20684;-50
2023/06/15 06:48:38;;;;;;;1.80;1.70;;;;;;;20.03;63.86;98699.31;4142450;28;20204;-51
2023/06/15 06:50:39;;;;;;;2.40;1.90;;;;;;;20.57;63.00;98710.50;4145770;28;20324;-49
2023/06/15 06:52:44;;;;;;;2.53;1.65;;;;;;;20.48;61.83;98703.19;4144727;28;20212;-49
2023/06/15 06:54:46;;;;;;;2.45;1.77;;;;;;;20.80;62.23;98711.41;4151746;28;20898;-54
2023/06/15 06:56:48;;;;;;;2.92;2.28;;;;;;;21.03;62.43;98707.56;4143996;28;20201;-49
2023/06/15 06:58:49;;;;;;;4.03;2.10;;;;;;;21.03;61.22;98707.56;4144933;28;20224;-50
2023/06/15 07:00:51;;;;;;;2.42;2.22;;;;;;;20.89;60.25;98701.22;4169618;28;20757;-50
2023/06/15 07:02:53;;;;;;;2.50;1.85;;;;;;;20.92;59.53;98706.97;4146222;28;20875;-49
2023/06/15 07:04:55;;;;;;;2.10;1.90;;;;;;;20.82;60.00;98695.22;4136533;28;20320;-49
2023/06/15 07:06:57;;;;;;;2.33;2.15;;;;;;;20.99;60.29;98707.38;4169425;28;20208;-49
2023/06/15 07:08:58;;;;;;;3.17;1.75;;;;;;;20.89;58.95;98701.22;4152785;28;20323;-50
2023/06/15 07:11:00;;;;;;;2.03;1.73;;;;;;;20.70;59.38;98704.09;4145552;28;20209;-49
2023/06/15 07:13:02;;;;;;;1.90;1.80;;;;;;;20.98;58.95;98707.72;4146856;28;20299;-49
2023/06/15 07:15:05;;;;;;;8.18;2.20;;;;;;;21.03;57.96;98702.00;4139185;28;20336;-50
2023/06/15 07:17:07;;;;;;;5.40;1.95;;;;;;;20.91;57.82;98704.53;4152885;28;20635;-50
2023/06/15 07:19:09;;;;;;;4.32;1.90;;;;;;;20.82;57.54;98700.78;4143153;28;20570;-50
2023/06/15 07:21:11;;;;;;;3.30;1.88;;;;;;;21.03;57.89;98707.56;4153992;28;20216;-50
2023/06/15 07:23:13;;;;;;;4.50;1.90;;;;;;;21.39;57.38;98708.41;4138843;28;20303;-50
2023/06/15 07:25:14;;;;;;;2.78;2.00;;;;;;;21.31;56.34;98698.03;4138293;28;20233;-51
2023/06/15 07:27:20;;;;;;;1.67;1.58;;;;;;;21.39;56.09;98705.63;4145714;28;20220;-51
2023/06/15 07:29:22;;;;;;;8.43;1.80;;;;;;;21.73;57.22;98705.91;4161967;28;20208;-51
2023/06/15 07:31:24;;;;;;;3.75;1.95;;;;;;;21.42;55.59;98699.41;4145537;28;20243;-49
2023/06/15 07:33:26;;;;;;;3.28;1.90;;;;;;;21.94;55.41;98707.00;4145340;28;20217;-51
2023/06/15 07:35:27;;;;;;;6.32;1.83;;;;;;;21.69;55.26;98710.44;4138602;28;20228;-49
2023/06/15 07:37:29;;;;;;;1.60;1.50;;;;;;;22.11;55.65;98709.91;4137125;28;20603;-50
2023/06/15 07:39:31;;;;;;;1.63;1.50;;;;;;;22.26;55.39;98703.91;4136281;28;20240;-50
2023/06/15 07:41:33;;;;;;;1.80;1.33;;;;;;;22.32;54.39;98697.06;4140445;28;20228;-49
2023/06/15 07:43:35;;;;;;;2.15;1.95;;;;;;;22.23;53.64;98707.34;4139578;28;20213;-50
2023/06/15 07:45:37;;;;;;;2.63;1.95;;;;;;;21.98;54.54;98708.03;4155495;28;20784;-48
2023/06/15 07:47:41;;;;;;;1.98;1.88;;;;;;;21.94;53.42;98712.59;4150866;28;20687;-49
2023/06/15 07:49:42;;;;;;;6.00;2.03;;;;;;;21.96;53.86;98711.13;4138273;28;20684;-49
2023/06/15 07:51:47;;;;;;;1.90;1.80;;;;;;;22.31;54.78;98704.59;4139124;28;20283;-49
2023/06/15 07:54:08;;;;;;;2.78;2.20;;;;;;;22.71;53.21;98711.03;4141513;28;20322;-51
2023/06/15 07:56:09;;;;;;;3.50;3.20;;;;;;;22.58;52.94;98712.75;4144041;28;20212;-49
2023/06/15 07:58:11;;;;;;;2.17;1.95;;;;;;;22.75;52.62;98712.00;4135180;28;20215;-51
2023/06/15 08:00:13;;;;;;;2.88;1.98;;;;;;;22.75;51.97;98712.00;4136939;28;20209;-49
2023/06/15 08:02:15;;;;;;;2.33;2.13;;;;;;;22.71;52.79;98722.19;4169647;28;20229;-49
2023/06/15 08:04:17;;;;;;;2.53;2.10;;;;;;;22.74;51.98;98722.34;4152294;28;20294;-49
2023/06/15 08:06:19;;;;;;;1.80;1.70;;;;;;;22.80;51.94;98714.66;4140647;28;20216;-50
2023/06/15 08:08:21;;;;;;;2.33;1.73;;;;;;;22.55;52.92;98712.59;4144855;28;20208;-49
2023/06/15 08:10:23;;;;;;;2.20;2.00;;;;;;;23.08;51.92;98713.22;4171550;28;20210;-49
2023/06/15 08:12:26;;;;;;;9.18;2.75;;;;;;;23.06;52.37;98707.97;4142465;28;20205;-50
2023/06/15 08:14:27;;;;;;;3.28;2.63;;;;;;;23.34;51.12;98708.50;4135317;28;20276;-49
2023/06/15 08:16:29;;;;;;;3.65;2.05;;;;;;;23.53;50.76;98700.63;4146273;28;20706;-50
2023/06/15 08:18:34;;;;;;;6.65;2.83;;;;;;;23.17;50.97;98708.53;4136829;28;20204;-50
2023/06/15 08:20:35;;;;;;;4.40;2.25;;;;;;;23.56;49.94;98706.38;4144828;28;20213;-49
2023/06/15 08:22:37;;;;;;;2.55;1.90;;;;;;;24.01;49.81;98704.88;4166005;28;20207;-50
2023/06/15 08:24:39;;;;;;;6.82;3.13;;;;;;;24.06;49.10;98705.50;4167330;28;20231;-49
2023/06/15 08:26:42;;;;;;;4.65;1.80;;;;;;;23.51;50.70;98702.94;4169941;28;20277;-49
2023/06/15 08:28:44;;;;;;;1.88;1.77;;;;;;;23.43;49.38;98701.78;4144786;28;20211;-49
2023/06/15 08:30:54;;;;;;;2.08;1.80;;;;;;;23.33;49.29;98693.75;4141825;28;20687;-49
2023/06/15 08:32:56;;;;;;;3.33;2.33;;;;;;;23.36;48.79;98707.03;4145030;28;20224;-50
2023/06/15 08:34:58;;;;;;;2.42;2.22;;;;;;;23.86;49.25;98705.38;4138130;28;20225;-49
2023/06/15 08:37:00;;;;;;;3.30;1.67;;;;;;;23.90;49.09;98702.78;4145597;28;20272;-53
2023/06/15 08:39:07;;;;;;;2.75;1.73;;;;;;;24.18;49.04;98711.25;4144595;28;20201;-49
2023/06/15 08:41:11;;;;;;;2.65;1.90;;;;;;;24.39;47.62;98703.75;4160646;28;20231;-48
2023/06/15 08:43:15;;;;;;;5.60;1.75;;;;;;;24.00;47.39;98706.03;4143331;28;20232;-50
2023/06/15 08:45:17;;;;;;;2.90;1.92;;;;;;;24.33;46.53;98702.28;4169089;28;20297;-50
2023/06/15 08:47:18;;;;;;;1.88;1.60;;;;;;;24.10;47.42;98702.88;4143728;28;20203;-50
2023/06/15 08:49:20;;;;;;;7.00;1.70;;;;;;;24.22;46.63;98706.63;4140656;28;20610;-50
2023/06/15 08:51:22;;;;;;;6.22;1.65;;;;;;;24.06;46.63;98702.72;4143260;28;20209;-53
2023/06/15 08:53:25;;;;;;;2.38;2.08;;;;;;;24.57;46.52;98707.31;4128285;28;20284;-53
2023/06/15 08:55:27;;;;;;;2.35;1.65;;;;;;;24.43;45.14;98703.91;4135156;28;20225;-49
2023/06/15 08:57:31;;;;;;;2.30;2.10;;;;;;;24.58;44.55;98701.41;4152508;28;20204;-51
2023/06/15 08:59:33;;;;;;;2.38;2.17;;;;;;;24.62;44.45;98707.16;4144798;28;20254;-51
2023/06/15 09:01:39;;;;;;;1.83;1.73;;;;;;;24.70;43.27;98714.69;4144651;28;20336;-50
2023/06/15 09:03:41;;;;;;;2.47;2.28;;;;;;;25.25;42.52;98710.59;4151975;28;20291;-51
2023/06/15 09:05:43;;;;;;;2.03;1.88;;;;;;;24.91;42.38;98696.78;4152938;28;20232;-52
2023/06/15 09:07:45;;;;;;;1.98;1.80;;;;;;;25.37;42.91;98702.25;4140081;28;20259;-50
2023/06/15 09:10:10;;;;;;;3.67;2.83;;;;;;;25.45;42.12;98695.75;4166216;28;20209;-49
2023/06/15 09:12:18;;;;;;;7.80;1.63;;;;;;;25.32;41.53;98704.44;4143940;28;20698;-49
2023/06/15 09:14:20;;;;;;;3.05;2.22;;;;;;;25.14;41.12;98700.88;4167322;28;20877;-50
2023/06/15 09:16:22;;;;;;;4.35;1.90;;;;;;;24.84;41.93;98698.47;4151332;28;20232;-50
2023/06/15 09:18:24;;;;;;;2.17;1.77;;;;;;;25.00;42.06;98703.13;4135172;28;20217;-50
2023/06/15 09:20:28;;;;;;;1.40;1.30;;;;;;;24.65;41.26;98701.69;4136225;28;20232;-49
2023/06/15 09:22:30;;;;;;;2.08;1.58;;;;;;;24.83;41.23;98706.06;4172688;28;20711;-51
2023/06/15 09:24:32;;;;;;;2.88;1.70;;;;;;;24.73;41.77;98708.41;4129655;28;20232;-49
2023/06/15 09:26:37;;;;;;;3.33;1.90;;;;;;;25.14;42.81;98695.28;4147121;28;20228;-48
2023/06/15 09:28:45;;;;;;;1.90;1.75;;;;;;;25.12;41.51;98700.41;4168520;28;20296;-50
2023/06/15 09:30:52;;;;;;;1.30;1.20;;;;;;;25.40;41.18;98697.94;4146531;28;20216;-51
2023/06/15 09:32:54;;;;;;;2.97;1.50;;;;;;;25.34;40.74;98702.91;4173029;28;20685;-49
2023/06/15 09:34:59;;;;;;;1.70;1.48;;;;;;;25.23;39.18;98707.31;4141504;28;20865;-49
2023/06/15 09:37:01;;;;;;;2.28;1.50;;;;;;;24.95;39.38;98706.16;4171735;28;20242;-51
2023/06/15 09:39:04;;;;;;;3.80;1.55;;;;;;;25.89;40.73;98695.06;4167848;28;20204;-49